< < Back
Terminal Aerodrome Forecast


Current Version              Previous Versions:   1  2  3  4  5  6  7  8  9  

Terminal Aerodrome Forecast

104
FTUS44 KOHX 170500
TAFBNA
TAF
KBNA 170520Z 1706/1806 16003KT P6SM SCT250
     FM171400 17011KT P6SM FEW040 BKN250=



Latest METAR

186
SAUS70 KWBC 180000
MTRBNA
METAR KBNA 172353Z 18004KT 10SM FEW200 BKN250 17/03 A3026 RMK AO2 SLP244
T01720028 10206 20172 58006


USA.gov is the U.S. government's official web portal to all federal, state and local government web resources and services.